Time;durP1;ratioP1;P1;durP2;ratioP2;P2;SDS_P1;SDS_P2;PMS_P1;PMS_P2;Temp;Humidity;BMP_temperature;BMP_pressure;BME280_temperature;BME280_humidity;BME280_pressure;Samples;Min_cycle;Max_cycle;Signal;HPM_P1;HPM_P2
2024/04/18 04:02:20;;;;;;;10.85;6.35;;;3.10;99.90;;;;;;5380638;22;20286;-76
2024/04/18 04:04:49;;;;;;;11.25;5.00;;;3.10;99.90;;;;;;5245547;27;20279;-75
2024/04/18 04:07:17;;;;;;;6.68;5.05;;;3.10;99.90;;;;;;5248576;27;20698;-75
2024/04/18 04:09:43;;;;;;;5.50;5.10;;;3.10;99.90;;;;;;5248320;27;20248;-74
2024/04/18 04:12:11;;;;;;;9.50;6.70;;;3.00;99.90;;;;;;5238094;27;20240;-75
2024/04/18 04:14:37;;;;;;;7.20;6.45;;;3.00;99.90;;;;;;5234810;27;20246;-75
2024/04/18 04:17:05;;;;;;;11.80;6.40;;;3.00;99.90;;;;;;5245294;27;20240;-74
2024/04/18 04:19:34;;;;;;;6.72;5.88;;;2.90;99.90;;;;;;5246687;27;20640;-75
2024/04/18 04:22:02;;;;;;;5.82;5.28;;;2.90;99.90;;;;;;5256082;27;20294;-75
2024/04/18 04:24:28;;;;;;;4.55;4.28;;;2.80;99.90;;;;;;5236339;27;20297;-74
2024/04/18 04:26:56;;;;;;;4.17;3.87;;;2.80;99.90;;;;;;5255699;27;20355;-74
2024/04/18 04:29:22;;;;;;;4.93;4.40;;;2.80;99.90;;;;;;5250585;27;20272;-75
2024/04/18 04:31:51;;;;;;;4.90;4.50;;;2.80;99.90;;;;;;5258153;27;20240;-76
2024/04/18 04:34:17;;;;;;;5.10;4.43;;;2.80;99.90;;;;;;5248368;27;20249;-75
2024/04/18 04:36:48;;;;;;;7.07;6.38;;;2.80;99.90;;;;;;5242190;27;20248;-75
2024/04/18 04:39:14;;;;;;;7.00;5.22;;;2.80;99.90;;;;;;5244468;27;20793;-75
2024/04/18 04:41:42;;;;;;;4.83;3.93;;;2.80;99.90;;;;;;5236447;27;20244;-74
2024/04/18 04:44:08;;;;;;;5.25;4.82;;;2.70;99.90;;;;;;5237776;27;20240;-74
2024/04/18 04:46:36;;;;;;;7.47;4.93;;;2.80;99.90;;;;;;5241838;27;20628;-75
2024/04/18 04:49:02;;;;;;;8.02;5.45;;;3.10;99.90;;;;;;5238512;27;20250;-74
2024/04/18 04:51:30;;;;;;;5.93;5.40;;;3.30;99.90;;;;;;5239041;27;20355;-76
2024/04/18 04:53:59;;;;;;;12.45;6.15;;;3.40;99.90;;;;;;5240370;27;20242;-75
2024/04/18 04:56:27;;;;;;;5.82;4.95;;;3.40;99.90;;;;;;5240516;27;20244;-75
2024/04/18 04:58:53;;;;;;;8.88;5.40;;;3.30;99.90;;;;;;5229658;27;20252;-75
2024/04/18 05:01:21;;;;;;;6.17;5.57;;;3.30;99.90;;;;;;5237702;27;20281;-75
2024/04/18 05:03:47;;;;;;;5.65;4.15;;;3.30;99.90;;;;;;5239638;27;20247;-75
2024/04/18 05:06:15;;;;;;;5.30;4.90;;;3.30;99.90;;;;;;5237571;27;20270;-75
2024/04/18 05:08:41;;;;;;;5.07;4.70;;;3.20;99.90;;;;;;5237341;27;20344;-75
2024/04/18 05:11:11;;;;;;;6.10;5.57;;;3.20;99.90;;;;;;5238998;27;20257;-75
2024/04/18 05:13:39;;;;;;;5.97;4.20;;;3.20;99.90;;;;;;5237403;27;20254;-75
2024/04/18 05:16:08;;;;;;;5.75;5.25;;;3.20;99.90;;;;;;5236811;27;20242;-75
2024/04/18 05:18:34;;;;;;;7.28;5.57;;;3.30;99.90;;;;;;5236643;27;20290;-75
2024/04/18 05:21:02;;;;;;;5.65;5.13;;;3.20;99.90;;;;;;5235148;27;20536;-75
2024/04/18 05:23:28;;;;;;;8.02;5.35;;;3.20;99.90;;;;;;5239036;27;20249;-75
2024/04/18 05:25:56;;;;;;;4.90;4.43;;;3.20;99.90;;;;;;5237403;27;20251;-75
2024/04/18 05:28:40;;;;;;;6.45;5.95;;;3.30;99.90;;;;;;5235465;27;20492;-74
2024/04/18 05:31:08;;;;;;;6.50;5.30;;;3.30;99.90;;;;;;5235675;27;20333;-74
2024/04/18 05:33:37;;;;;;;6.78;5.13;;;3.30;99.90;;;;;;5234746;27;20278;-74
2024/04/18 05:36:06;;;;;;;11.10;5.68;;;3.30;99.90;;;;;;5233362;27;20245;-74
2024/04/18 05:38:34;;;;;;;8.85;6.00;;;3.40;99.90;;;;;;5236798;27;20247;-74
2024/04/18 05:41:03;;;;;;;7.00;5.53;;;3.50;99.90;;;;;;5234164;27;20351;-74
2024/04/18 05:43:33;;;;;;;8.07;5.65;;;3.50;99.90;;;;;;5235368;27;20314;-74
2024/04/18 05:46:02;;;;;;;9.45;7.35;;;3.60;99.90;;;;;;5236332;27;20236;-73
2024/04/18 05:48:30;;;;;;;10.48;6.88;;;3.70;99.90;;;;;;5237685;27;20307;-75
2024/04/18 05:50:59;;;;;;;9.82;7.50;;;3.80;99.90;;;;;;5232372;27;20251;-74
2024/04/18 05:53:27;;;;;;;32.80;19.13;;;3.90;99.90;;;;;;5235230;27;20244;-75
2024/04/18 05:55:56;;;;;;;46.97;28.98;;;3.90;99.90;;;;;;5230245;27;20244;-75
2024/04/18 05:58:24;;;;;;;20.15;14.80;;;4.00;99.90;;;;;;5237368;27;20240;-75
2024/04/18 06:00:55;;;;;;;62.33;28.02;;;4.20;99.90;;;;;;5240586;27;20260;-75
2024/04/18 06:03:24;;;;;;;58.28;29.05;;;4.30;99.90;;;;;;5239005;27;20268;-74
2024/04/18 06:05:52;;;;;;;40.95;20.77;;;4.40;99.90;;;;;;5238959;27;20294;-71
2024/04/18 06:08:21;;;;;;;65.75;28.35;;;4.50;99.90;;;;;;5230609;27;20248;-71
2024/04/18 06:10:50;;;;;;;34.63;17.98;;;5.00;99.90;;;;;;5232730;27;20279;-71
2024/04/18 06:13:19;;;;;;;39.45;19.90;;;5.70;99.90;;;;;;5226410;27;20782;-71
2024/04/18 06:16:00;;;;;;;38.08;24.25;;;6.10;99.90;;;;;;5236129;27;20248;-71
2024/04/18 06:18:36;;;;;;;23.10;14.80;;;6.50;99.90;;;;;;5234966;27;20358;-71
2024/04/18 06:21:12;;;;;;;39.58;23.58;;;6.70;99.90;;;;;;5240113;27;20377;-71
2024/04/18 06:23:45;;;;;;;41.47;24.33;;;6.90;99.90;;;;;;5234784;27;20287;-71
2024/04/18 06:26:15;;;;;;;51.90;31.33;;;7.00;99.90;;;;;;5234825;27;20267;-71
2024/04/18 06:28:45;;;;;;;51.05;32.45;;;7.00;99.90;;;;;;5237192;27;20252;-71
2024/04/18 06:31:24;;;;;;;16.08;12.73;;;6.90;99.90;;;;;;5238586;27;20244;-71
2024/04/18 06:33:56;;;;;;;17.00;11.55;;;6.80;99.90;;;;;;5236317;27;20248;-71
2024/04/18 06:36:35;;;;;;;12.48;10.27;;;6.70;99.90;;;;;;5239088;27;20754;-70
2024/04/18 06:39:05;;;;;;;12.55;9.75;;;6.70;99.90;;;;;;5234036;27;20252;-70
2024/04/18 06:41:44;;;;;;;12.48;9.13;;;6.60;99.90;;;;;;5235013;27;20351;-70
2024/04/18 06:44:15;;;;;;;8.25;7.30;;;6.60;99.90;;;;;;5231564;27;20571;-71
2024/04/18 06:46:51;;;;;;;7.70;6.05;;;6.50;99.90;;;;;;5226767;27;20304;-71
2024/04/18 06:49:25;;;;;;;8.25;7.38;;;6.50;99.90;;;;;;5226632;27;20256;-71
2024/04/18 06:51:57;;;;;;;11.63;9.50;;;6.40;99.90;;;;;;5236792;27;20769;-71
2024/04/18 06:54:29;;;;;;;8.10;7.30;;;6.50;99.90;;;;;;5237823;27;20240;-70
2024/04/18 06:57:00;;;;;;;9.57;6.68;;;6.50;99.90;;;;;;5231704;27;20379;-70
2024/04/18 06:59:33;;;;;;;10.55;8.60;;;6.60;99.90;;;;;;5228727;27;20258;-70
2024/04/18 07:02:02;;;;;;;13.70;12.30;;;6.60;99.90;;;;;;5224509;27;20284;-70
2024/04/18 07:04:35;;;;;;;6.53;5.75;;;6.60;99.90;;;;;;5231609;27;20874;-70
2024/04/18 07:07:08;;;;;;;8.48;6.32;;;6.70;99.90;;;;;;5233635;27;20793;-71
2024/04/18 07:09:45;;;;;;;15.82;10.63;;;6.80;99.90;;;;;;5236082;27;20311;-71
2024/04/18 07:12:19;;;;;;;19.10;12.13;;;6.80;99.90;;;;;;5236065;27;20496;-71
2024/04/18 07:14:50;;;;;;;8.32;7.45;;;6.90;99.90;;;;;;5234129;27;20244;-71
2024/04/18 07:17:22;;;;;;;9.07;7.07;;;7.00;99.90;;;;;;5239022;27;20271;-71
2024/04/18 07:19:53;;;;;;;6.93;5.72;;;7.10;99.90;;;;;;5239900;27;20425;-71
2024/04/18 07:22:21;;;;;;;7.45;6.65;;;7.10;99.90;;;;;;5239448;27;20286;-70
2024/04/18 07:24:49;;;;;;;4.30;3.67;;;7.20;99.90;;;;;;5238819;27;20244;-70
2024/04/18 07:27:18;;;;;;;4.00;3.70;;;7.30;99.90;;;;;;5237162;27;20236;-70
2024/04/18 07:29:46;;;;;;;5.43;4.90;;;7.30;99.90;;;;;;5243856;27;20749;-70
2024/04/18 07:32:15;;;;;;;4.35;3.95;;;7.40;99.90;;;;;;5239093;27;20248;-71
2024/04/18 07:34:43;;;;;;;3.00;2.70;;;7.40;99.90;;;;;;5236844;27;20278;-70
2024/04/18 07:37:14;;;;;;;2.78;2.58;;;7.50;99.90;;;;;;5237717;27;20616;-70
2024/04/18 07:39:43;;;;;;;3.55;3.38;;;7.60;99.90;;;;;;5232780;27;20253;-70
2024/04/18 07:42:12;;;;;;;4.65;4.30;;;7.60;99.90;;;;;;5228967;27;21130;-70
2024/04/18 07:44:41;;;;;;;3.20;3.00;;;7.70;99.90;;;;;;5231647;27;20574;-70
2024/04/18 07:47:09;;;;;;;2.45;2.25;;;7.70;99.90;;;;;;5238138;27;20267;-70
2024/04/18 07:49:37;;;;;;;2.10;2.00;;;7.80;99.90;;;;;;5249526;27;20319;-70
2024/04/18 07:52:06;;;;;;;2.92;2.67;;;7.90;99.90;;;;;;5239881;27;20422;-70
2024/04/18 07:54:37;;;;;;;2.72;2.63;;;8.00;99.90;;;;;;5239807;27;20287;-70
2024/04/18 07:57:06;;;;;;;2.63;2.40;;;8.10;99.90;;;;;;5237589;27;20244;-70
2024/04/18 07:59:35;;;;;;;3.13;2.90;;;8.20;99.90;;;;;;5237355;27;20327;-72
2024/04/18 08:02:03;;;;;;;2.58;1.20;;;8.30;99.90;;;;;;5241437;27;20777;-72
2024/04/18 08:04:32;;;;;;;1.40;1.40;;;8.40;99.90;;;;;;5241666;27;20435;-73
2024/04/18 08:07:00;;;;;;;1.23;1.23;;;8.30;99.90;;;;;;5239683;27;20685;-72
2024/04/18 08:09:28;;;;;;;1.52;1.48;;;8.40;99.90;;;;;;5244793;27;20351;-72
2024/04/18 08:11:59;;;;;;;1.63;1.63;;;8.50;99.90;;;;;;5247486;27;20864;-72
2024/04/18 08:14:28;;;;;;;1.60;0.90;;;8.60;99.90;;;;;;5236726;27;20590;-73
2024/04/18 08:16:56;;;;;;;1.33;1.30;;;8.70;99.90;;;;;;5241742;27;20237;-72
2024/04/18 08:19:24;;;;;;;2.30;2.20;;;8.70;99.90;;;;;;5238844;27;20244;-72
2024/04/18 08:21:53;;;;;;;1.10;1.10;;;8.90;99.90;;;;;;5243424;27;20249;-72
2024/04/18 08:24:27;;;;;;;2.25;2.15;;;8.90;99.90;;;;;;5239112;27;20244;-72
2024/04/18 08:26:58;;;;;;;1.10;1.00;;;9.00;99.90;;;;;;5233219;27;20299;-74
2024/04/18 08:29:27;;;;;;;1.33;1.23;;;9.20;99.90;;;;;;5238018;27;20347;-73
2024/04/18 08:31:56;;;;;;;1.08;1.08;;;9.20;99.90;;;;;;5229411;27;20367;-74
2024/04/18 08:34:24;;;;;;;0.88;0.88;;;9.30;99.90;;;;;;5235842;27;20283;-74
2024/04/18 08:36:53;;;;;;;0.63;0.63;;;9.30;99.90;;;;;;5241114;27;20278;-74
2024/04/18 08:39:21;;;;;;;0.73;0.73;;;9.30;99.90;;;;;;5229916;27;20311;-74
2024/04/18 08:41:50;;;;;;;1.60;1.23;;;9.30;99.90;;;;;;5236680;27;20248;-74
2024/04/18 08:44:21;;;;;;;0.90;0.45;;;9.30;99.90;;;;;;5239348;27;20240;-74
2024/04/18 08:46:50;;;;;;;1.17;0.60;;;9.30;99.90;;;;;;5239139;27;20967;-74
2024/04/18 08:49:21;;;;;;;0.75;0.75;;;9.30;99.90;;;;;;5237091;27;20371;-74
2024/04/18 08:51:51;;;;;;;0.77;0.77;;;9.20;99.90;;;;;;5233755;27;20840;-74
2024/04/18 08:54:20;;;;;;;0.75;0.75;;;9.20;99.90;;;;;;5237627;27;20747;-74
2024/04/18 08:56:51;;;;;;;0.50;0.50;;;9.30;99.90;;;;;;5238668;27;20653;-74
2024/04/18 08:59:24;;;;;;;1.00;1.00;;;9.30;99.90;;;;;;5239240;27;20249;-73
2024/04/18 09:01:52;;;;;;;1.77;1.05;;;9.30;99.90;;;;;;5235535;27;20248;-74
2024/04/18 09:04:20;;;;;;;0.50;0.50;;;9.30;99.90;;;;;;5232764;27;20240;-74
2024/04/18 09:06:49;;;;;;;1.95;0.60;;;9.40;99.90;;;;;;5233506;27;20237;-74
2024/04/18 09:09:16;;;;;;;1.42;0.80;;;9.40;99.90;;;;;;5235505;27;20707;-74
2024/04/18 09:11:47;;;;;;;0.80;0.80;;;9.40;99.90;;;;;;5231501;27;20335;-74
2024/04/18 09:14:16;;;;;;;0.75;0.75;;;9.50;99.90;;;;;;5239294;27;20240;-74
2024/04/18 09:16:47;;;;;;;0.65;0.65;;;9.60;99.90;;;;;;5239276;27;20270;-76
2024/04/18 09:19:16;;;;;;;0.70;0.70;;;9.70;99.90;;;;;;5237937;27;20241;-74
2024/04/18 09:21:44;;;;;;;0.82;0.65;;;9.90;99.90;;;;;;5238111;27;20291;-75
2024/04/18 09:24:12;;;;;;;0.52;0.52;;;10.10;99.90;;;;;;5238862;27;20311;-74
2024/04/18 09:26:41;;;;;;;0.90;0.90;;;10.20;99.90;;;;;;5236014;27;20241;-74
2024/04/18 09:29:10;;;;;;;0.65;0.65;;;10.40;99.90;;;;;;5230621;27;20348;-75
2024/04/18 09:31:40;;;;;;;0.60;0.60;;;10.40;99.90;;;;;;5238358;27;20240;-75
2024/04/18 09:34:15;;;;;;;0.75;0.55;;;10.40;99.90;;;;;;5236982;27;20244;-70
2024/04/18 09:36:44;;;;;;;0.45;0.45;;;10.50;99.90;;;;;;5232901;27;20270;-68
2024/04/18 09:39:15;;;;;;;0.65;0.65;;;10.60;99.90;;;;;;5231094;27;20240;-69
2024/04/18 09:41:49;;;;;;;0.47;0.47;;;10.60;99.90;;;;;;5227044;27;20612;-69
2024/04/18 09:44:23;;;;;;;1.88;1.58;;;10.70;99.90;;;;;;5229460;27;20303;-71
2024/04/18 09:46:52;;;;;;;8.32;5.28;;;10.70;99.90;;;;;;5219195;27;20245;-68
2024/04/18 09:49:25;;;;;;;4.10;2.92;;;10.90;99.90;;;;;;5236347;27;20240;-71
2024/04/18 09:51:55;;;;;;;2.70;0.70;;;10.90;99.90;;;;;;5227487;27;20385;-69
2024/04/18 09:54:23;;;;;;;0.55;0.55;;;10.80;99.90;;;;;;5225424;27;20260;-69
2024/04/18 09:56:53;;;;;;;0.45;0.40;;;10.90;99.90;;;;;;5234401;27;20236;-70
2024/04/18 09:59:24;;;;;;;0.75;0.75;;;11.10;99.90;;;;;;5236245;27;20243;-69
2024/04/18 10:01:53;;;;;;;1.10;1.00;;;11.30;99.90;;;;;;5239404;27;20401;-73
2024/04/18 10:04:24;;;;;;;2.23;0.63;;;11.50;99.90;;;;;;5239784;27;20581;-72
2024/04/18 10:06:54;;;;;;;0.40;0.40;;;11.60;99.90;;;;;;5234694;27;21082;-70
2024/04/18 10:09:26;;;;;;;0.50;0.50;;;11.80;99.90;;;;;;5235676;27;20533;-73
2024/04/18 10:11:55;;;;;;;0.57;0.57;;;11.90;99.90;;;;;;5238992;27;20548;-73
2024/04/18 10:14:21;;;;;;;0.60;0.60;;;11.90;99.90;;;;;;5230937;27;21139;-71
2024/04/18 10:16:50;;;;;;;0.37;0.37;;;11.90;99.90;;;;;;5234930;27;20608;-74
2024/04/18 10:19:25;;;;;;;0.50;0.50;;;11.90;99.90;;;;;;5237080;27;20472;-75
2024/04/18 10:21:55;;;;;;;0.60;0.60;;;12.00;99.90;;;;;;5237558;27;20475;-75
2024/04/18 10:24:23;;;;;;;0.77;0.77;;;11.90;99.90;;;;;;5241068;27;21168;-75
2024/04/18 10:27:01;;;;;;;0.73;0.60;;;11.90;99.90;;;;;;5243072;27;20590;-76
2024/04/18 10:29:29;;;;;;;1.50;0.80;;;11.90;99.90;;;;;;5236857;27;20475;-75
2024/04/18 10:31:59;;;;;;;1.20;0.93;;;11.70;99.90;;;;;;5242640;27;20491;-75
2024/04/18 10:34:32;;;;;;;0.97;0.97;;;11.60;99.90;;;;;;5240800;27;20491;-75
2024/04/18 10:37:07;;;;;;;1.23;1.23;;;11.50;99.90;;;;;;5241209;27;20527;-75
2024/04/18 10:39:37;;;;;;;0.97;0.70;;;11.60;99.90;;;;;;5241512;27;20499;-76
2024/04/18 10:42:08;;;;;;;0.60;0.60;;;11.70;99.90;;;;;;5242452;27;20548;-75
2024/04/18 10:44:35;;;;;;;2.43;2.23;;;11.80;99.90;;;;;;5234732;27;20590;-75
2024/04/18 10:47:03;;;;;;;1.30;1.30;;;11.80;99.90;;;;;;5241847;27;20468;-75
2024/04/18 10:49:34;;;;;;;5.73;3.90;;;11.80;99.90;;;;;;5240166;27;20495;-76
2024/04/18 10:52:08;;;;;;;1.87;1.03;;;11.80;99.90;;;;;;5232156;27;20570;-75
2024/04/18 10:54:37;;;;;;;1.63;1.53;;;11.70;99.90;;;;;;5239787;27;20495;-75
2024/04/18 10:57:06;;;;;;;1.73;1.63;;;11.50;99.90;;;;;;5241077;27;20460;-75
2024/04/18 10:59:34;;;;;;;1.23;1.23;;;11.40;99.90;;;;;;5234916;27;20471;-75
2024/04/18 11:02:04;;;;;;;1.37;1.37;;;11.50;99.90;;;;;;5243200;27;20611;-75
2024/04/18 11:04:35;;;;;;;1.20;1.20;;;11.60;99.90;;;;;;5242977;27;20592;-75
2024/04/18 11:07:04;;;;;;;1.20;1.20;;;11.70;99.90;;;;;;5240666;27;20930;-75
2024/04/18 11:09:33;;;;;;;1.50;1.50;;;11.80;99.90;;;;;;5241185;27;20533;-75
2024/04/18 11:12:02;;;;;;;1.13;1.10;;;12.00;99.90;;;;;;5241627;27;20496;-75
2024/04/18 11:14:31;;;;;;;1.23;1.23;;;12.20;99.90;;;;;;5239405;27;20476;-75
2024/04/18 11:17:00;;;;;;;1.40;1.40;;;12.20;99.90;;;;;;5242071;27;20487;-75
2024/04/18 11:19:29;;;;;;;1.27;1.27;;;12.30;99.90;;;;;;5239357;27;20468;-75
2024/04/18 11:22:00;;;;;;;1.43;1.43;;;12.40;99.90;;;;;;5240870;27;20822;-75
2024/04/18 11:24:30;;;;;;;1.57;1.57;;;12.30;99.90;;;;;;5241511;27;20472;-75
2024/04/18 11:26:58;;;;;;;1.10;1.10;;;12.30;99.90;;;;;;5240656;27;20460;-75
2024/04/18 11:29:29;;;;;;;1.43;1.43;;;12.20;99.90;;;;;;5239989;27;20599;-75
2024/04/18 11:32:09;;;;;;;1.40;1.40;;;12.20;99.90;;;;;;5239411;27;20894;-74
2024/04/18 11:34:39;;;;;;;1.73;1.30;;;12.20;99.90;;;;;;5233091;27;20613;-74
2024/04/18 11:37:11;;;;;;;2.03;1.80;;;12.40;99.90;;;;;;5240209;27;20480;-74
2024/04/18 11:39:41;;;;;;;1.00;1.00;;;12.50;99.90;;;;;;5238484;27;21092;-73
2024/04/18 11:42:09;;;;;;;1.57;1.57;;;12.70;99.90;;;;;;5239930;27;20703;-75
2024/04/18 11:44:38;;;;;;;1.10;1.10;;;12.90;99.90;;;;;;5240540;27;20551;-74
2024/04/18 11:47:07;;;;;;;1.30;1.30;;;13.20;99.90;;;;;;5237761;27;20959;-74
2024/04/18 11:49:35;;;;;;;1.40;1.17;;;13.20;99.90;;;;;;5239923;27;20816;-74
2024/04/18 11:52:04;;;;;;;2.23;1.10;;;13.20;99.90;;;;;;5241021;27;20495;-71
2024/04/18 11:54:35;;;;;;;5.17;0.90;;;13.20;99.90;;;;;;5238739;27;20555;-71
2024/04/18 11:57:03;;;;;;;1.77;1.10;;;13.20;99.90;;;;;;5239514;27;20550;-71
2024/04/18 11:59:31;;;;;;;1.10;1.10;;;13.30;99.90;;;;;;5239332;27;20479;-71
2024/04/18 12:02:00;;;;;;;0.93;0.90;;;13.40;99.90;;;;;;5238826;27;20464;-71
2024/04/18 12:04:28;;;;;;;0.90;0.90;;;13.50;99.90;;;;;;5239214;27;20483;-71
2024/04/18 12:06:57;;;;;;;1.03;0.97;;;13.40;99.60;;;;;;5239009;27;20488;-71
2024/04/18 12:09:25;;;;;;;1.70;1.23;;;13.30;99.70;;;;;;5239162;27;20484;-71
2024/04/18 12:11:56;;;;;;;1.10;1.10;;;13.20;99.90;;;;;;5239359;27;21341;-71
2024/04/18 12:14:24;;;;;;;1.73;1.60;;;13.00;99.90;;;;;;5237715;27;20487;-71
2024/04/18 12:16:53;;;;;;;1.23;1.20;;;12.70;99.90;;;;;;5238754;27;20503;-71
2024/04/18 12:19:21;;;;;;;1.30;1.30;;;12.60;99.90;;;;;;5236043;27;21030;-71
2024/04/18 12:21:49;;;;;;;1.13;1.13;;;12.60;99.90;;;;;;5235067;27;20534;-71
2024/04/18 12:24:18;;;;;;;1.57;1.47;;;12.60;99.90;;;;;;5238467;27;20483;-70
2024/04/18 12:26:47;;;;;;;1.30;1.30;;;12.70;99.90;;;;;;5238634;27;20813;-70
2024/04/18 12:29:21;;;;;;;1.03;1.00;;;12.50;99.90;;;;;;5238477;27;20527;-70
2024/04/18 12:31:49;;;;;;;1.43;1.40;;;12.50;99.90;;;;;;5238720;27;20659;-70
2024/04/18 12:34:18;;;;;;;0.87;0.87;;;12.50;99.90;;;;;;5236521;27;20479;-71
2024/04/18 12:36:47;;;;;;;1.00;1.00;;;12.50;99.90;;;;;;5238504;27;20524;-70
2024/04/18 12:39:16;;;;;;;1.37;1.37;;;12.60;99.90;;;;;;5238056;27;20568;-71
2024/04/18 12:41:44;;;;;;;1.30;1.30;;;12.60;99.90;;;;;;5233366;27;20590;-71
2024/04/18 12:44:14;;;;;;;1.33;1.33;;;12.60;99.90;;;;;;5232579;27;20471;-71
2024/04/18 12:46:45;;;;;;;1.27;1.27;;;12.70;99.90;;;;;;5231244;27;20471;-72
2024/04/18 12:49:14;;;;;;;2.40;1.73;;;12.70;99.90;;;;;;5230589;27;20544;-71
2024/04/18 12:51:42;;;;;;;1.67;1.57;;;12.70;99.90;;;;;;5232508;27;20483;-71
2024/04/18 12:54:10;;;;;;;1.63;1.53;;;12.70;99.90;;;;;;5231995;27;20472;-71
2024/04/18 12:56:39;;;;;;;1.20;1.20;;;12.60;99.90;;;;;;5234572;27;20564;-71
2024/04/18 12:59:07;;;;;;;1.73;1.67;;;12.50;99.90;;;;;;5233325;27;20484;-71
2024/04/18 13:01:35;;;;;;;1.30;1.23;;;12.40;99.90;;;;;;5235474;27;20543;-71
2024/04/18 13:04:06;;;;;;;1.67;1.67;;;12.40;99.90;;;;;;5237962;27;20559;-71
2024/04/18 13:06:35;;;;;;;1.50;1.50;;;12.40;99.90;;;;;;5238172;27;20580;-71
2024/04/18 13:09:04;;;;;;;1.17;1.17;;;12.30;99.90;;;;;;5236321;27;20539;-71
2024/04/18 13:11:32;;;;;;;1.10;1.10;;;12.20;99.90;;;;;;5239063;27;20812;-71
2024/04/18 13:14:03;;;;;;;1.70;1.70;;;12.20;99.90;;;;;;5238123;27;20596;-71
2024/04/18 13:16:31;;;;;;;1.30;1.30;;;12.20;99.90;;;;;;5238550;27;20484;-71
2024/04/18 13:18:59;;;;;;;1.40;1.40;;;12.20;99.90;;;;;;5238113;27;20599;-71
2024/04/18 13:21:30;;;;;;;1.37;1.30;;;12.20;99.90;;;;;;5236627;27;20985;-70
2024/04/18 13:23:59;;;;;;;1.50;1.07;;;12.10;99.90;;;;;;5238012;27;20591;-70
2024/04/18 13:26:27;;;;;;;1.60;1.17;;;12.10;99.90;;;;;;5237895;27;20833;-71
2024/04/18 13:28:55;;;;;;;1.35;1.35;;;11.50;99.90;;;;;;5237668;27;20535;-70
2024/04/18 13:31:21;;;;;;;1.55;1.55;;;10.40;99.90;;;;;;5233743;27;20392;-70
2024/04/18 13:33:52;;;;;;;7.67;1.80;;;9.80;99.90;;;;;;5234020;27;20253;-70
2024/04/18 13:36:22;;;;;;;1.23;1.17;;;9.50;99.90;;;;;;5236171;27;20244;-71
2024/04/18 13:38:53;;;;;;;2.67;1.15;;;9.30;99.90;;;;;;5237803;27;21060;-71
2024/04/18 13:41:21;;;;;;;0.85;0.85;;;9.20;99.90;;;;;;5235094;27;20248;-71
2024/04/18 13:43:50;;;;;;;0.70;0.70;;;9.10;99.90;;;;;;5237320;27;20282;-71
2024/04/18 13:46:16;;;;;;;1.58;1.50;;;8.90;99.90;;;;;;5237607;27;21142;-71
2024/04/18 13:48:44;;;;;;;2.60;1.45;;;8.90;99.90;;;;;;5236197;27;20284;-71
2024/04/18 13:51:12;;;;;;;1.75;0.80;;;8.80;99.90;;;;;;5231397;27;20248;-72
2024/04/18 13:53:41;;;;;;;18.05;9.27;;;8.60;99.90;;;;;;5236407;27;20363;-71
2024/04/18 13:56:12;;;;;;;8.57;6.32;;;8.70;99.90;;;;;;5238231;27;20244;-72
2024/04/18 13:58:40;;;;;;;2.95;2.45;;;8.80;99.90;;;;;;5240896;27;20241;-71
2024/04/18 14:01:08;;;;;;;2.47;2.33;;;9.00;99.90;;;;;;5241086;27;20767;-71
2024/04/18 14:03:37;;;;;;;1.05;1.05;;;9.20;99.90;;;;;;5241262;27;20240;-72
2024/04/18 14:06:09;;;;;;;3.30;3.00;;;9.20;99.90;;;;;;5241458;27;20751;-72
2024/04/18 14:08:38;;;;;;;1.70;1.60;;;9.30;99.90;;;;;;5240920;27;20240;-72
2024/04/18 14:11:06;;;;;;;6.43;5.82;;;9.30;99.90;;;;;;5241037;27;20376;-71
2024/04/18 14:13:37;;;;;;;6.15;4.05;;;9.40;99.90;;;;;;5239790;27;20451;-70
2024/04/18 14:18:51;;;;;;;4.57;4.03;;;9.50;99.90;;;;;;5242912;27;20259;-71
2024/04/18 14:21:20;;;;;;;2.92;2.72;;;9.50;99.90;;;;;;5239836;27;20291;-71
2024/04/18 14:23:49;;;;;;;1.50;1.50;;;9.50;99.90;;;;;;5235784;27;20303;-70
2024/04/18 14:26:17;;;;;;;1.77;1.20;;;9.50;99.90;;;;;;5240919;27;20304;-70
2024/04/18 14:28:48;;;;;;;1.80;1.70;;;9.60;99.90;;;;;;5234895;27;20256;-70
2024/04/18 14:31:16;;;;;;;2.85;2.67;;;9.60;99.90;;;;;;5241463;27;20281;-70
2024/04/18 14:33:45;;;;;;;1.30;1.23;;;9.70;99.90;;;;;;5239201;27;20743;-70
2024/04/18 14:36:13;;;;;;;1.25;1.17;;;9.70;99.90;;;;;;5240962;27;20778;-71
2024/04/18 14:38:42;;;;;;;2.28;1.00;;;9.70;99.90;;;;;;5240251;27;20279;-71
2024/04/18 14:41:07;;;;;;;1.58;1.50;;;9.80;99.90;;;;;;5237260;27;20247;-71
2024/04/18 14:43:36;;;;;;;2.00;1.90;;;10.00;99.90;;;;;;5239906;27;20744;-70
2024/04/18 14:46:07;;;;;;;2.60;2.50;;;10.00;99.90;;;;;;5240632;27;20244;-71
2024/04/18 14:48:36;;;;;;;1.85;1.75;;;10.10;99.90;;;;;;5238377;27;20542;-71
2024/04/18 14:51:04;;;;;;;1.75;1.75;;;10.10;99.90;;;;;;5240805;27;20244;-71
2024/04/18 14:53:33;;;;;;;3.22;3.03;;;10.30;99.90;;;;;;5240878;27;20271;-71
2024/04/18 14:56:01;;;;;;;3.25;3.05;;;10.30;99.90;;;;;;5238092;27;20241;-71
2024/04/18 14:58:30;;;;;;;1.52;1.52;;;10.40;99.90;;;;;;5239114;27;20492;-71
2024/04/18 15:00:58;;;;;;;4.47;2.60;;;10.50;99.90;;;;;;5239960;27;20617;-70
2024/04/18 15:03:29;;;;;;;2.90;2.70;;;10.60;99.90;;;;;;5240615;27;20245;-75
2024/04/18 15:05:58;;;;;;;2.75;2.55;;;10.70;99.90;;;;;;5241239;27;20248;-75
2024/04/18 15:08:27;;;;;;;1.25;1.25;;;10.60;99.90;;;;;;5240514;27;20282;-75
2024/04/18 15:10:55;;;;;;;1.70;1.60;;;10.50;99.90;;;;;;5239323;27;20244;-75
2024/04/18 15:13:23;;;;;;;1.70;1.60;;;10.40;99.90;;;;;;5241811;27;20345;-75
2024/04/18 15:15:52;;;;;;;4.38;1.48;;;10.30;99.90;;;;;;5243288;27;20260;-76
2024/04/18 15:18:21;;;;;;;1.50;1.40;;;10.30;99.90;;;;;;5243212;27;20244;-75
2024/04/18 15:20:52;;;;;;;1.25;1.25;;;10.40;99.90;;;;;;5230034;27;20345;-75
2024/04/18 15:23:20;;;;;;;1.98;1.88;;;10.50;99.90;;;;;;5242815;27;20364;-76
2024/04/18 15:25:46;;;;;;;1.80;1.80;;;10.60;99.90;;;;;;5229696;27;20350;-74
2024/04/18 15:28:16;;;;;;;1.75;1.60;;;10.60;99.90;;;;;;5246157;27;20240;-73
2024/04/18 15:30:45;;;;;;;1.95;1.13;;;10.60;99.90;;;;;;5243972;27;20295;-75
2024/04/18 15:33:13;;;;;;;1.88;1.50;;;10.60;99.90;;;;;;5235557;27;20340;-75
2024/04/18 15:35:42;;;;;;;1.42;1.00;;;10.60;99.90;;;;;;5242187;27;20299;-72
2024/04/18 15:38:13;;;;;;;0.65;0.65;;;10.70;99.90;;;;;;5238488;27;20342;-72
2024/04/18 15:40:41;;;;;;;1.13;1.08;;;10.80;99.90;;;;;;5236442;27;20290;-72
2024/04/18 15:43:09;;;;;;;2.97;0.93;;;10.90;99.90;;;;;;5240155;27;20244;-72
2024/04/18 15:45:42;;;;;;;0.90;0.90;;;10.80;99.90;;;;;;5240332;27;20334;-72
2024/04/18 15:48:10;;;;;;;2.65;1.48;;;10.90;99.90;;;;;;5240219;27;20286;-73
2024/04/18 15:50:38;;;;;;;1.10;1.10;;;10.90;99.90;;;;;;5239229;27;20339;-72
2024/04/18 15:53:07;;;;;;;0.90;0.90;;;10.80;99.90;;;;;;5240099;27;20236;-72
2024/04/18 15:55:38;;;;;;;1.13;1.13;;;10.80;99.90;;;;;;5240110;27;20957;-72
2024/04/18 15:58:06;;;;;;;1.65;0.90;;;10.80;99.90;;;;;;5237836;27;20313;-73
2024/04/18 16:00:35;;;;;;;1.70;1.40;;;10.90;99.90;;;;;;5239661;27;20244;-72
2024/04/18 16:03:03;;;;;;;1.45;1.35;;;10.90;99.90;;;;;;5240365;27;20351;-72
2024/04/18 16:05:31;;;;;;;0.60;0.60;;;10.90;99.90;;;;;;5240164;27;20245;-72
2024/04/18 16:08:00;;;;;;;1.13;1.02;;;10.90;99.90;;;;;;5239536;27;20459;-72
2024/04/18 16:10:26;;;;;;;9.20;0.88;;;10.90;99.90;;;;;;5238110;27;20346;-72
2024/04/18 16:12:57;;;;;;;1.05;1.05;;;10.80;99.90;;;;;;5240335;27;20279;-73
2024/04/18 16:15:26;;;;;;;1.95;0.60;;;10.70;99.90;;;;;;5240444;27;20327;-74
2024/04/18 16:17:54;;;;;;;1.00;1.00;;;10.70;99.90;;;;;;5238105;27;20279;-73
2024/04/18 16:20:22;;;;;;;1.00;1.00;;;10.70;99.90;;;;;;5238516;27;20346;-73
2024/04/18 16:22:51;;;;;;;1.02;0.93;;;10.70;99.90;;;;;;5234889;27;20244;-71
2024/04/18 16:25:19;;;;;;;1.75;1.10;;;10.80;99.90;;;;;;5239910;27;20232;-74
2024/04/18 16:27:47;;;;;;;2.25;0.82;;;10.80;99.90;;;;;;5239588;27;20240;-74
2024/04/18 16:30:19;;;;;;;0.93;0.65;;;10.80;99.90;;;;;;5237631;27;20252;-71
2024/04/18 16:32:48;;;;;;;1.42;0.75;;;10.80;99.90;;;;;;5238839;27;20249;-74
2024/04/18 16:35:17;;;;;;;1.15;0.77;;;10.70;99.90;;;;;;5239473;27;20279;-73
2024/04/18 16:37:46;;;;;;;0.55;0.55;;;10.60;99.90;;;;;;5239119;27;20263;-74
2024/04/18 16:40:14;;;;;;;0.77;0.77;;;10.50;99.90;;;;;;5235916;27;20328;-74
2024/04/18 16:42:42;;;;;;;4.18;0.88;;;10.40;99.90;;;;;;5239148;27;20319;-74
2024/04/18 16:45:11;;;;;;;0.98;0.98;;;10.40;99.90;;;;;;5227835;27;20240;-74
2024/04/18 16:47:42;;;;;;;1.50;0.70;;;10.30;99.90;;;;;;5239106;27;20240;-74
2024/04/18 16:50:10;;;;;;;2.65;1.10;;;10.30;99.90;;;;;;5239621;27;20300;-74
2024/04/18 16:52:39;;;;;;;0.70;0.70;;;10.30;99.90;;;;;;5239227;27;20256;-73
2024/04/18 16:55:07;;;;;;;1.00;1.00;;;10.20;99.90;;;;;;5238914;27;20307;-73
2024/04/18 16:57:36;;;;;;;1.50;1.35;;;10.20;99.90;;;;;;5238679;27;20284;-73
2024/04/18 17:00:04;;;;;;;2.80;1.23;;;10.20;99.90;;;;;;5238400;27;20777;-73
2024/04/18 17:02:30;;;;;;;1.20;1.10;;;10.20;99.90;;;;;;5238018;27;20293;-74
2024/04/18 17:05:01;;;;;;;1.20;1.10;;;10.20;99.90;;;;;;5237808;27;20595;-74